LFBPLFBT

Guest
Details From LFBP - Pau Pyrenees
To LFBT - Tarbes Ossun Lourdes
Flight Number -
Tags decoded
Created
Modified
Stats Distance 22 nm / 40 km
Max Altitude 0 ft / 0 m
Waypoints 2
Social Downloads 0
Likes 0
Share VATSIM

Download

Looking for another format? Having issues loading an existing format? Contact us
Advertisement - Login to hide

Notes

Requested: LFBP LFBT

Route

LFBP LFBT

ID Type Via Altitude Latitude Longitude Leg Dist Tot Dist Heading (true) Name
O LFBP APT - 0 ft / 0 m 43.38108˚ -0.42075˚ - 0 nm - Pau Pyrenees
O LFBT APT - 0 ft / 0 m 43.17864˚ -0.00634˚ 21 nm 21 nm 124° / 124° Tarbes Ossun Lourdes

Altitude Profile

Advertisement - Login to hide

LFBP

Details ICAO LFBP (PUF)
Name Pau Pyrenees
Region France
Timezone Europe/Paris (UTC+1.0)
Stats Elevation 616 ft / 188 m (AMSL)
Location 43.381078° -0.420752°
Runways 1
Magnetic Variation 0.093° E

METAR

LFBP 110930Z AUTO 26007KT 9999 -RA FEW037 BKN044 OVC052 08/06 Q0989 NOSIG

Decode

TAF

TAF LFBP 110500Z 1106/1206 28015KT 9999 BKN015 OVC030 TEMPO 1106/1108 27015G30KT BECMG 1108/1110 24010KT TEMPO 1112/1124 27015G30KT 4500 SHRA BKN020TCU BECMG 1200/1202 32010KT

Decode

Departure Runways

ID Width Length Bearing (true) Bearing (mag) Surface Threshold Offset Overrun Length
13 148 ft / 45 m 8,191 ft / 2,497 m 125.89° 125.80° Asphalt 0 ft / 0 m 0 ft / 0 m
31 148 ft / 45 m 8,191 ft / 2,497 m 305.90° 305.81° Asphalt 0 ft / 0 m 0 ft / 0 m

LFBT

Details ICAO LFBT (LDE)
Name Tarbes Ossun Lourdes
Region France
Timezone Europe/Paris (UTC+1.0)
Stats Elevation 1,260 ft / 384 m (AMSL)
Location 43.178643° -0.006340°
Runways 1
Magnetic Variation 0.217° E

METAR

LFBT 110930Z AUTO 26013KT 9999 -RA FEW021 BKN036 OVC043 06/04 Q0989 BECMG SCT050TCU SCT110

Decode

TAF

TAF TAF LFBT 110500Z 1106/1206 29016KT 9999 SCT010 BKN045 TEMPO 1106/1108 26015G25KT FM111000 27010KT 9999 SCT050TCU SCT110 TEMPO 1116/1204 28015G30KT 4000 SHRA BKN015TCU

Decode

Destination Runways

ID Width Length Bearing (true) Bearing (mag) Surface Threshold Offset Overrun Length
02 148 ft / 45 m 9,847 ft / 3,001 m 20.26° 20.04° Asphalt 2,199 ft / 670 m 0 ft / 0 m
20 148 ft / 45 m 9,847 ft / 3,001 m 200.27° 200.05° Asphalt 0 ft / 0 m 0 ft / 0 m

Approach Navaids

Runway Type Ident Frequency Range Bearing (true) Bearing (mag) Slope Elevation
20 Localiser OS 109.50 MHz 18 nm / 33 km 200.27° 200.05° - 1,265 ft / 386 m (AMSL)
20 Glidescope OS 109.50 MHz 10 nm / 19 km 200.27° 200.05° 3.00° 1,265 ft / 386 m (AMSL)
20 DME OS 109.50 MHz 18 nm / 33 km - - - 1,217 ft / 371 m (AMSL)

Popular Alternatives